sensor_id;sensor_type;location;lat;lon;timestamp;P1;durP1;ratioP1;P2;durP2;ratioP2
45382;SDS011;42455;51.660;5.824;2022-07-22T00:00:05;7.0;;;4.0;;
45382;SDS011;42455;51.660;5.824;2022-07-22T00:05:11;7.0;;;4.0;;
45382;SDS011;42455;51.660;5.824;2022-07-22T00:10:17;7.0;;;4.0;;
45382;SDS011;42455;51.660;5.824;2022-07-22T00:15:23;7.0;;;4.0;;
45382;SDS011;42455;51.660;5.824;2022-07-22T00:20:29;7.0;;;4.0;;
45382;SDS011;42455;51.660;5.824;2022-07-22T00:25:35;6.0;;;4.0;;
45382;SDS011;42455;51.660;5.824;2022-07-22T00:30:42;6.0;;;4.0;;
45382;SDS011;42455;51.660;5.824;2022-07-22T00:35:48;8.0;;;4.0;;
45382;SDS011;42455;51.660;5.824;2022-07-22T00:40:54;7.5;;;3.0;;
45382;SDS011;42455;51.660;5.824;2022-07-22T00:46:00;8.0;;;4.0;;
45382;SDS011;42455;51.660;5.824;2022-07-22T00:51:06;7.0;;;3.0;;
45382;SDS011;42455;51.660;5.824;2022-07-22T00:56:13;6.0;;;3.0;;
45382;SDS011;42455;51.660;5.824;2022-07-22T01:01:19;7.0;;;3.5;;
45382;SDS011;42455;51.660;5.824;2022-07-22T01:06:25;6.0;;;4.0;;
45382;SDS011;42455;51.660;5.824;2022-07-22T01:11:31;6.0;;;4.0;;
45382;SDS011;42455;51.660;5.824;2022-07-22T01:16:38;7.0;;;4.0;;
45382;SDS011;42455;51.660;5.824;2022-07-22T01:21:44;6.0;;;4.0;;
45382;SDS011;42455;51.660;5.824;2022-07-22T01:26:50;9.0;;;5.0;;
45382;SDS011;42455;51.660;5.824;2022-07-22T01:31:56;7.5;;;5.0;;
45382;SDS011;42455;51.660;5.824;2022-07-22T01:37:02;6.0;;;5.0;;
45382;SDS011;42455;51.660;5.824;2022-07-22T01:42:09;7.0;;;5.0;;
45382;SDS011;42455;51.660;5.824;2022-07-22T01:47:15;9.0;;;5.0;;
45382;SDS011;42455;51.660;5.824;2022-07-22T01:52:21;7.0;;;5.0;;
45382;SDS011;42455;51.660;5.824;2022-07-22T01:57:27;7.0;;;5.0;;
45382;SDS011;42455;51.660;5.824;2022-07-22T02:02:34;6.5;;;5.0;;
45382;SDS011;42455;51.660;5.824;2022-07-22T02:07:40;8.0;;;5.5;;
45382;SDS011;42455;51.660;5.824;2022-07-22T02:12:46;8.0;;;5.0;;
45382;SDS011;42455;51.660;5.824;2022-07-22T02:17:52;7.0;;;5.0;;
45382;SDS011;42455;51.660;5.824;2022-07-22T02:22:58;10.0;;;5.0;;
45382;SDS011;42455;51.660;5.824;2022-07-22T02:28:04;8.0;;;5.0;;
45382;SDS011;42455;51.660;5.824;2022-07-22T02:33:11;8.0;;;5.0;;
45382;SDS011;42455;51.660;5.824;2022-07-22T02:38:17;11.0;;;5.0;;
45382;SDS011;42455;51.660;5.824;2022-07-22T02:43:23;10.0;;;6.0;;
45382;SDS011;42455;51.660;5.824;2022-07-22T02:48:29;7.0;;;6.0;;
45382;SDS011;42455;51.660;5.824;2022-07-22T02:53:35;9.0;;;6.0;;
45382;SDS011;42455;51.660;5.824;2022-07-22T02:58:42;8.0;;;6.0;;
45382;SDS011;42455;51.660;5.824;2022-07-22T03:03:48;8.0;;;5.0;;
45382;SDS011;42455;51.660;5.824;2022-07-22T03:08:54;9.0;;;6.0;;
45382;SDS011;42455;51.660;5.824;2022-07-22T03:14:00;7.5;;;5.0;;
45382;SDS011;42455;51.660;5.824;2022-07-22T03:19:06;7.0;;;5.0;;
45382;SDS011;42455;51.660;5.824;2022-07-22T03:24:13;8.0;;;5.0;;
45382;SDS011;42455;51.660;5.824;2022-07-22T03:29:19;7.0;;;5.0;;
45382;SDS011;42455;51.660;5.824;2022-07-22T03:34:25;7.0;;;6.0;;
45382;SDS011;42455;51.660;5.824;2022-07-22T03:39:31;9.0;;;6.0;;
45382;SDS011;42455;51.660;5.824;2022-07-22T03:44:37;9.0;;;6.0;;
45382;SDS011;42455;51.660;5.824;2022-07-22T03:54:49;9.0;;;6.0;;
45382;SDS011;42455;51.660;5.824;2022-07-22T03:59:55;11.0;;;6.0;;
45382;SDS011;42455;51.660;5.824;2022-07-22T04:05:01;8.0;;;6.0;;
45382;SDS011;42455;51.660;5.824;2022-07-22T04:10:08;10.0;;;7.0;;
45382;SDS011;42455;51.660;5.824;2022-07-22T04:15:13;10.0;;;6.0;;
45382;SDS011;42455;51.660;5.824;2022-07-22T04:20:19;8.5;;;6.0;;
45382;SDS011;42455;51.660;5.824;2022-07-22T04:25:25;10.5;;;7.0;;
45382;SDS011;42455;51.660;5.824;2022-07-22T04:30:32;9.5;;;6.0;;
45382;SDS011;42455;51.660;5.824;2022-07-22T04:35:38;9.0;;;6.0;;
45382;SDS011;42455;51.660;5.824;2022-07-22T04:40:44;9.0;;;6.0;;
45382;SDS011;42455;51.660;5.824;2022-07-22T04:45:50;9.0;;;7.0;;
45382;SDS011;42455;51.660;5.824;2022-07-22T04:50:58;8.0;;;7.0;;
45382;SDS011;42455;51.660;5.824;2022-07-22T04:56:02;9.0;;;6.0;;
45382;SDS011;42455;51.660;5.824;2022-07-22T05:01:09;10.0;;;7.0;;
45382;SDS011;42455;51.660;5.824;2022-07-22T05:06:15;9.0;;;6.0;;
45382;SDS011;42455;51.660;5.824;2022-07-22T05:11:21;9.0;;;6.0;;
45382;SDS011;42455;51.660;5.824;2022-07-22T05:16:27;9.0;;;6.0;;
45382;SDS011;42455;51.660;5.824;2022-07-22T05:21:34;9.0;;;6.0;;
45382;SDS011;42455;51.660;5.824;2022-07-22T05:26:40;9.0;;;6.0;;
45382;SDS011;42455;51.660;5.824;2022-07-22T05:31:46;9.5;;;6.0;;
45382;SDS011;42455;51.660;5.824;2022-07-22T05:36:52;8.0;;;6.0;;
45382;SDS011;42455;51.660;5.824;2022-07-22T05:41:58;7.0;;;5.0;;
45382;SDS011;42455;51.660;5.824;2022-07-22T05:47:05;7.0;;;5.0;;
45382;SDS011;42455;51.660;5.824;2022-07-22T05:52:11;8.0;;;5.0;;
45382;SDS011;42455;51.660;5.824;2022-07-22T05:57:17;7.0;;;5.0;;
45382;SDS011;42455;51.660;5.824;2022-07-22T06:02:23;7.0;;;5.0;;
45382;SDS011;42455;51.660;5.824;2022-07-22T06:07:29;10.0;;;6.0;;
45382;SDS011;42455;51.660;5.824;2022-07-22T06:12:36;8.0;;;5.0;;
45382;SDS011;42455;51.660;5.824;2022-07-22T06:22:48;7.0;;;6.0;;
45382;SDS011;42455;51.660;5.824;2022-07-22T06:27:54;8.0;;;6.0;;
45382;SDS011;42455;51.660;5.824;2022-07-22T06:33:01;6.0;;;5.0;;
45382;SDS011;42455;51.660;5.824;2022-07-22T06:38:07;7.0;;;4.0;;
45382;SDS011;42455;51.660;5.824;2022-07-22T06:43:13;5.0;;;3.0;;
45382;SDS011;42455;51.660;5.824;2022-07-22T06:48:19;6.0;;;4.0;;
45382;SDS011;42455;51.660;5.824;2022-07-22T06:53:25;6.0;;;5.0;;
45382;SDS011;42455;51.660;5.824;2022-07-22T06:58:32;6.0;;;4.0;;
45382;SDS011;42455;51.660;5.824;2022-07-22T07:03:38;6.0;;;4.0;;
45382;SDS011;42455;51.660;5.824;2022-07-22T07:08:44;8.0;;;4.0;;
45382;SDS011;42455;51.660;5.824;2022-07-22T07:13:50;7.0;;;4.0;;
45382;SDS011;42455;51.660;5.824;2022-07-22T07:18:56;6.0;;;4.0;;
45382;SDS011;42455;51.660;5.824;2022-07-22T07:24:03;6.0;;;4.0;;
45382;SDS011;42455;51.660;5.824;2022-07-22T07:29:09;5.0;;;4.0;;
45382;SDS011;42455;51.660;5.824;2022-07-22T07:34:15;6.0;;;3.0;;
45382;SDS011;42455;51.660;5.824;2022-07-22T07:39:21;4.0;;;2.0;;
45382;SDS011;42455;51.660;5.824;2022-07-22T07:44:27;3.0;;;2.0;;
45382;SDS011;42455;51.660;5.824;2022-07-22T07:49:34;4.0;;;2.0;;
45382;SDS011;42455;51.660;5.824;2022-07-22T07:54:40;5.0;;;2.0;;
45382;SDS011;42455;51.660;5.824;2022-07-22T07:59:46;5.0;;;2.0;;
45382;SDS011;42455;51.660;5.824;2022-07-22T08:04:52;5.0;;;2.0;;
45382;SDS011;42455;51.660;5.824;2022-07-22T08:09:58;4.0;;;2.0;;
45382;SDS011;42455;51.660;5.824;2022-07-22T08:15:05;4.0;;;2.0;;
45382;SDS011;42455;51.660;5.824;2022-07-22T08:20:11;5.0;;;2.0;;
45382;SDS011;42455;51.660;5.824;2022-07-22T08:25:18;5.0;;;2.0;;
45382;SDS011;42455;51.660;5.824;2022-07-22T08:30:23;5.0;;;2.0;;
45382;SDS011;42455;51.660;5.824;2022-07-22T08:35:30;4.0;;;2.0;;
45382;SDS011;42455;51.660;5.824;2022-07-22T08:40:36;4.0;;;2.0;;
45382;SDS011;42455;51.660;5.824;2022-07-22T08:45:42;5.0;;;2.0;;
45382;SDS011;42455;51.660;5.824;2022-07-22T08:50:48;4.0;;;2.0;;
45382;SDS011;42455;51.660;5.824;2022-07-22T08:55:54;3.0;;;2.0;;
45382;SDS011;42455;51.660;5.824;2022-07-22T09:01:04;4.0;;;2.0;;
45382;SDS011;42455;51.660;5.824;2022-07-22T09:06:07;5.0;;;2.0;;
45382;SDS011;42455;51.660;5.824;2022-07-22T09:11:26;3.0;;;2.0;;
45382;SDS011;42455;51.660;5.824;2022-07-22T09:16:37;3.0;;;2.0;;
45382;SDS011;42455;51.660;5.824;2022-07-22T09:21:28;3.0;;;1.0;;
45382;SDS011;42455;51.660;5.824;2022-07-22T09:26:35;3.0;;;1.0;;
45382;SDS011;42455;51.660;5.824;2022-07-22T09:31:38;3.0;;;1.0;;
45382;SDS011;42455;51.660;5.824;2022-07-22T09:36:53;3.0;;;2.0;;
45382;SDS011;42455;51.660;5.824;2022-07-22T09:41:56;2.0;;;2.0;;
45382;SDS011;42455;51.660;5.824;2022-07-22T09:46:55;3.0;;;2.0;;
45382;SDS011;42455;51.660;5.824;2022-07-22T09:52:03;4.0;;;2.0;;
45382;SDS011;42455;51.660;5.824;2022-07-22T09:57:08;3.0;;;2.0;;
45382;SDS011;42455;51.660;5.824;2022-07-22T10:02:14;3.0;;;2.0;;
45382;SDS011;42455;51.660;5.824;2022-07-22T10:07:21;3.0;;;2.0;;
45382;SDS011;42455;51.660;5.824;2022-07-22T10:12:26;4.0;;;2.0;;
45382;SDS011;42455;51.660;5.824;2022-07-22T10:17:33;3.0;;;2.5;;
45382;SDS011;42455;51.660;5.824;2022-07-22T10:22:54;4.0;;;3.0;;
45382;SDS011;42455;51.660;5.824;2022-07-22T10:27:56;3.0;;;3.0;;
45382;SDS011;42455;51.660;5.824;2022-07-22T10:33:02;4.0;;;3.0;;
45382;SDS011;42455;51.660;5.824;2022-07-22T10:38:01;4.0;;;3.0;;
45382;SDS011;42455;51.660;5.824;2022-07-22T10:43:09;4.0;;;2.0;;
45382;SDS011;42455;51.660;5.824;2022-07-22T10:48:16;4.0;;;3.0;;
45382;SDS011;42455;51.660;5.824;2022-07-22T10:53:18;4.0;;;3.0;;
45382;SDS011;42455;51.660;5.824;2022-07-22T10:58:51;4.0;;;3.0;;
45382;SDS011;42455;51.660;5.824;2022-07-22T11:03:31;4.0;;;3.0;;
45382;SDS011;42455;51.660;5.824;2022-07-22T11:08:35;6.5;;;4.0;;
45382;SDS011;42455;51.660;5.824;2022-07-22T11:13:41;4.0;;;3.0;;
45382;SDS011;42455;51.660;5.824;2022-07-22T11:18:53;4.0;;;3.0;;
45382;SDS011;42455;51.660;5.824;2022-07-22T11:23:54;4.0;;;3.0;;
45382;SDS011;42455;51.660;5.824;2022-07-22T11:29:00;4.0;;;3.0;;
45382;SDS011;42455;51.660;5.824;2022-07-22T11:34:07;5.0;;;3.0;;
45382;SDS011;42455;51.660;5.824;2022-07-22T11:39:13;5.0;;;3.0;;
45382;SDS011;42455;51.660;5.824;2022-07-22T11:44:19;3.5;;;3.0;;
45382;SDS011;42455;51.660;5.824;2022-07-22T11:49:26;3.5;;;2.0;;
45382;SDS011;42455;51.660;5.824;2022-07-22T11:54:31;3.0;;;2.0;;
45382;SDS011;42455;51.660;5.824;2022-07-22T11:59:37;3.0;;;2.0;;
45382;SDS011;42455;51.660;5.824;2022-07-22T12:04:43;3.5;;;3.0;;
45382;SDS011;42455;51.660;5.824;2022-07-22T12:09:49;4.0;;;2.0;;
45382;SDS011;42455;51.660;5.824;2022-07-22T12:14:55;3.0;;;2.0;;
45382;SDS011;42455;51.660;5.824;2022-07-22T12:20:12;3.0;;;2.0;;
45382;SDS011;42455;51.660;5.824;2022-07-22T12:25:08;3.0;;;2.0;;
45382;SDS011;42455;51.660;5.824;2022-07-22T12:30:14;2.0;;;2.0;;
45382;SDS011;42455;51.660;5.824;2022-07-22T12:35:20;3.0;;;2.0;;
45382;SDS011;42455;51.660;5.824;2022-07-22T12:40:27;3.0;;;2.0;;
45382;SDS011;42455;51.660;5.824;2022-07-22T12:45:33;3.0;;;2.0;;
45382;SDS011;42455;51.660;5.824;2022-07-22T12:50:40;3.5;;;2.0;;
45382;SDS011;42455;51.660;5.824;2022-07-22T12:55:46;3.0;;;2.0;;
45382;SDS011;42455;51.660;5.824;2022-07-22T13:00:53;2.5;;;2.0;;
45382;SDS011;42455;51.660;5.824;2022-07-22T13:05:58;3.0;;;2.0;;
45382;SDS011;42455;51.660;5.824;2022-07-22T13:11:04;3.0;;;2.0;;
45382;SDS011;42455;51.660;5.824;2022-07-22T13:21:16;3.0;;;2.0;;
45382;SDS011;42455;51.660;5.824;2022-07-22T13:26:22;4.0;;;3.0;;
45382;SDS011;42455;51.660;5.824;2022-07-22T13:31:29;4.0;;;3.0;;
45382;SDS011;42455;51.660;5.824;2022-07-22T13:36:35;3.0;;;3.0;;
45382;SDS011;42455;51.660;5.824;2022-07-22T13:41:41;3.0;;;3.0;;
45382;SDS011;42455;51.660;5.824;2022-07-22T13:46:47;4.0;;;3.0;;
45382;SDS011;42455;51.660;5.824;2022-07-22T13:51:53;3.0;;;2.0;;
45382;SDS011;42455;51.660;5.824;2022-07-22T13:57:00;3.0;;;3.0;;
45382;SDS011;42455;51.660;5.824;2022-07-22T14:02:06;3.5;;;2.0;;
45382;SDS011;42455;51.660;5.824;2022-07-22T14:07:12;3.0;;;2.0;;
45382;SDS011;42455;51.660;5.824;2022-07-22T14:12:18;4.0;;;3.0;;
45382;SDS011;42455;51.660;5.824;2022-07-22T14:17:24;4.0;;;3.0;;
45382;SDS011;42455;51.660;5.824;2022-07-22T14:22:31;3.0;;;3.0;;
45382;SDS011;42455;51.660;5.824;2022-07-22T14:27:37;3.0;;;3.0;;
45382;SDS011;42455;51.660;5.824;2022-07-22T14:32:43;4.0;;;3.0;;
45382;SDS011;42455;51.660;5.824;2022-07-22T14:37:49;3.0;;;3.0;;
45382;SDS011;42455;51.660;5.824;2022-07-22T14:42:56;4.0;;;3.0;;
45382;SDS011;42455;51.660;5.824;2022-07-22T14:48:02;4.0;;;3.0;;
45382;SDS011;42455;51.660;5.824;2022-07-22T14:53:08;4.0;;;3.0;;
45382;SDS011;42455;51.660;5.824;2022-07-22T14:58:14;4.0;;;4.0;;
45382;SDS011;42455;51.660;5.824;2022-07-22T15:03:20;5.0;;;3.0;;
45382;SDS011;42455;51.660;5.824;2022-07-22T15:08:27;3.0;;;3.0;;
45382;SDS011;42455;51.660;5.824;2022-07-22T15:13:33;3.0;;;3.0;;
45382;SDS011;42455;51.660;5.824;2022-07-22T15:18:38;4.0;;;3.0;;
45382;SDS011;42455;51.660;5.824;2022-07-22T15:23:44;4.0;;;3.0;;
45382;SDS011;42455;51.660;5.824;2022-07-22T15:28:50;5.0;;;2.0;;
45382;SDS011;42455;51.660;5.824;2022-07-22T15:33:57;3.0;;;3.0;;
45382;SDS011;42455;51.660;5.824;2022-07-22T15:39:03;3.0;;;3.0;;
45382;SDS011;42455;51.660;5.824;2022-07-22T15:44:09;5.0;;;4.0;;
45382;SDS011;42455;51.660;5.824;2022-07-22T15:49:16;4.0;;;3.0;;
45382;SDS011;42455;51.660;5.824;2022-07-22T15:54:21;3.0;;;2.0;;
45382;SDS011;42455;51.660;5.824;2022-07-22T15:59:28;3.0;;;3.0;;
45382;SDS011;42455;51.660;5.824;2022-07-22T16:04:34;4.0;;;3.0;;
45382;SDS011;42455;51.660;5.824;2022-07-22T16:09:40;4.0;;;3.0;;
45382;SDS011;42455;51.660;5.824;2022-07-22T16:14:46;4.0;;;3.0;;
45382;SDS011;42455;51.660;5.824;2022-07-22T16:19:52;4.0;;;3.0;;
45382;SDS011;42455;51.660;5.824;2022-07-22T16:24:59;3.0;;;3.0;;
45382;SDS011;42455;51.660;5.824;2022-07-22T16:30:05;3.0;;;3.0;;
45382;SDS011;42455;51.660;5.824;2022-07-22T16:35:11;3.0;;;3.0;;
45382;SDS011;42455;51.660;5.824;2022-07-22T16:40:17;4.0;;;3.0;;
45382;SDS011;42455;51.660;5.824;2022-07-22T16:45:24;3.0;;;3.0;;
45382;SDS011;42455;51.660;5.824;2022-07-22T16:50:30;3.0;;;3.0;;
45382;SDS011;42455;51.660;5.824;2022-07-22T16:55:36;3.0;;;3.0;;
45382;SDS011;42455;51.660;5.824;2022-07-22T17:00:42;4.0;;;3.0;;
45382;SDS011;42455;51.660;5.824;2022-07-22T17:05:48;4.0;;;3.0;;
45382;SDS011;42455;51.660;5.824;2022-07-22T17:10:55;4.0;;;3.0;;
45382;SDS011;42455;51.660;5.824;2022-07-22T17:16:01;5.0;;;3.0;;
45382;SDS011;42455;51.660;5.824;2022-07-22T17:21:07;3.0;;;2.0;;
45382;SDS011;42455;51.660;5.824;2022-07-22T17:26:13;3.0;;;3.0;;
45382;SDS011;42455;51.660;5.824;2022-07-22T17:31:19;4.0;;;3.0;;
45382;SDS011;42455;51.660;5.824;2022-07-22T17:36:26;3.0;;;2.0;;
45382;SDS011;42455;51.660;5.824;2022-07-22T17:41:32;4.0;;;3.0;;
45382;SDS011;42455;51.660;5.824;2022-07-22T17:46:38;4.0;;;3.0;;
45382;SDS011;42455;51.660;5.824;2022-07-22T17:51:44;4.0;;;3.0;;
45382;SDS011;42455;51.660;5.824;2022-07-22T17:56:50;4.0;;;3.0;;
45382;SDS011;42455;51.660;5.824;2022-07-22T18:01:57;4.0;;;3.0;;
45382;SDS011;42455;51.660;5.824;2022-07-22T18:07:03;4.0;;;3.0;;
45382;SDS011;42455;51.660;5.824;2022-07-22T18:12:09;4.0;;;3.0;;
45382;SDS011;42455;51.660;5.824;2022-07-22T18:17:15;3.0;;;3.0;;
45382;SDS011;42455;51.660;5.824;2022-07-22T18:22:22;3.0;;;3.0;;
45382;SDS011;42455;51.660;5.824;2022-07-22T18:32:34;3.0;;;3.0;;
45382;SDS011;42455;51.660;5.824;2022-07-22T18:37:40;5.0;;;3.0;;
45382;SDS011;42455;51.660;5.824;2022-07-22T18:42:46;5.0;;;3.0;;
45382;SDS011;42455;51.660;5.824;2022-07-22T18:47:53;4.0;;;3.0;;
45382;SDS011;42455;51.660;5.824;2022-07-22T18:52:59;3.0;;;3.0;;
45382;SDS011;42455;51.660;5.824;2022-07-22T18:58:05;3.0;;;3.0;;
45382;SDS011;42455;51.660;5.824;2022-07-22T19:03:11;3.0;;;3.0;;
45382;SDS011;42455;51.660;5.824;2022-07-22T19:08:17;4.0;;;3.0;;
45382;SDS011;42455;51.660;5.824;2022-07-22T19:13:24;4.0;;;3.0;;
45382;SDS011;42455;51.660;5.824;2022-07-22T19:18:30;4.0;;;3.0;;
45382;SDS011;42455;51.660;5.824;2022-07-22T19:23:36;3.0;;;3.0;;
45382;SDS011;42455;51.660;5.824;2022-07-22T19:28:42;4.0;;;3.0;;
45382;SDS011;42455;51.660;5.824;2022-07-22T19:33:49;4.0;;;3.0;;
45382;SDS011;42455;51.660;5.824;2022-07-22T19:38:55;4.0;;;3.0;;
45382;SDS011;42455;51.660;5.824;2022-07-22T19:44:01;4.0;;;3.0;;
45382;SDS011;42455;51.660;5.824;2022-07-22T19:49:07;3.5;;;3.0;;
45382;SDS011;42455;51.660;5.824;2022-07-22T19:54:13;4.0;;;3.0;;
45382;SDS011;42455;51.660;5.824;2022-07-22T20:04:26;6.0;;;3.0;;
45382;SDS011;42455;51.660;5.824;2022-07-22T20:09:32;5.0;;;3.0;;
45382;SDS011;42455;51.660;5.824;2022-07-22T20:14:38;5.0;;;3.0;;
45382;SDS011;42455;51.660;5.824;2022-07-22T20:19:44;5.0;;;3.0;;
45382;SDS011;42455;51.660;5.824;2022-07-22T20:24:51;4.0;;;3.0;;
45382;SDS011;42455;51.660;5.824;2022-07-22T20:29:57;3.5;;;3.0;;
45382;SDS011;42455;51.660;5.824;2022-07-22T20:35:03;5.5;;;3.0;;
45382;SDS011;42455;51.660;5.824;2022-07-22T20:40:10;5.0;;;3.0;;
45382;SDS011;42455;51.660;5.824;2022-07-22T20:45:15;5.0;;;3.0;;
45382;SDS011;42455;51.660;5.824;2022-07-22T20:50:21;4.0;;;3.0;;
45382;SDS011;42455;51.660;5.824;2022-07-22T20:55:27;4.0;;;3.0;;
45382;SDS011;42455;51.660;5.824;2022-07-22T21:00:33;4.0;;;3.0;;
45382;SDS011;42455;51.660;5.824;2022-07-22T21:05:39;6.0;;;3.0;;
45382;SDS011;42455;51.660;5.824;2022-07-22T21:10:45;4.0;;;3.0;;
45382;SDS011;42455;51.660;5.824;2022-07-22T21:15:52;4.0;;;3.0;;
45382;SDS011;42455;51.660;5.824;2022-07-22T21:20:57;4.0;;;3.0;;
45382;SDS011;42455;51.660;5.824;2022-07-22T21:26:03;5.0;;;3.0;;
45382;SDS011;42455;51.660;5.824;2022-07-22T21:31:09;4.0;;;3.0;;
45382;SDS011;42455;51.660;5.824;2022-07-22T21:36:16;4.0;;;3.0;;
45382;SDS011;42455;51.660;5.824;2022-07-22T21:41:22;4.0;;;3.0;;
45382;SDS011;42455;51.660;5.824;2022-07-22T21:46:28;4.0;;;3.0;;
45382;SDS011;42455;51.660;5.824;2022-07-22T21:51:34;5.0;;;4.0;;
45382;SDS011;42455;51.660;5.824;2022-07-22T21:56:40;4.0;;;3.0;;
45382;SDS011;42455;51.660;5.824;2022-07-22T22:01:47;4.0;;;4.0;;
45382;SDS011;42455;51.660;5.824;2022-07-22T22:06:54;5.0;;;4.0;;
45382;SDS011;42455;51.660;5.824;2022-07-22T22:11:59;4.0;;;4.0;;
45382;SDS011;42455;51.660;5.824;2022-07-22T22:17:05;4.0;;;3.0;;
45382;SDS011;42455;51.660;5.824;2022-07-22T22:22:11;5.0;;;3.0;;
45382;SDS011;42455;51.660;5.824;2022-07-22T22:27:18;4.0;;;3.0;;
45382;SDS011;42455;51.660;5.824;2022-07-22T22:32:24;4.0;;;3.0;;
45382;SDS011;42455;51.660;5.824;2022-07-22T22:37:30;4.0;;;4.0;;
45382;SDS011;42455;51.660;5.824;2022-07-22T22:42:36;4.0;;;4.0;;
45382;SDS011;42455;51.660;5.824;2022-07-22T22:47:43;6.0;;;4.0;;
45382;SDS011;42455;51.660;5.824;2022-07-22T22:52:49;4.0;;;4.0;;
45382;SDS011;42455;51.660;5.824;2022-07-22T22:57:55;5.0;;;4.0;;
45382;SDS011;42455;51.660;5.824;2022-07-22T23:03:01;5.0;;;4.0;;
45382;SDS011;42455;51.660;5.824;2022-07-22T23:08:07;5.0;;;4.0;;
45382;SDS011;42455;51.660;5.824;2022-07-22T23:13:13;5.0;;;4.0;;
45382;SDS011;42455;51.660;5.824;2022-07-22T23:18:20;4.0;;;4.0;;
45382;SDS011;42455;51.660;5.824;2022-07-22T23:28:32;4.0;;;4.0;;
45382;SDS011;42455;51.660;5.824;2022-07-22T23:33:38;4.0;;;4.0;;
45382;SDS011;42455;51.660;5.824;2022-07-22T23:38:45;4.0;;;4.0;;
45382;SDS011;42455;51.660;5.824;2022-07-22T23:43:51;4.0;;;4.0;;
45382;SDS011;42455;51.660;5.824;2022-07-22T23:48:57;4.5;;;4.0;;
45382;SDS011;42455;51.660;5.824;2022-07-22T23:54:04;4.0;;;4.0;;
45382;SDS011;42455;51.660;5.824;2022-07-22T23:59:09;4.0;;;4.0;;
